Time;durP1;ratioP1;P1;durP2;ratioP2;P2;SDS_P1;SDS_P2;PMS_P1;PMS_P2;Temp;Humidity;BMP_temperature;BMP_pressure;BME280_temperature;BME280_humidity;BME280_pressure;Samples;Min_cycle;Max_cycle;Signal;HPM_P1;HPM_P2
2021/03/20 00:00:25;;;;;;;12.68;8.27;;;2.30;74.70;;;1.00;63.66;99138.00;5125806;28;20416;-83
2021/03/20 00:02:53;;;;;;;17.77;9.15;;;2.30;75.20;;;0.95;63.30;99136.81;5127199;28;20419;-81
2021/03/20 00:05:20;;;;;;;15.43;8.18;;;2.20;75.10;;;0.92;63.54;99131.88;5127205;28;20415;-84
2021/03/20 00:07:50;;;;;;;13.43;7.90;;;2.20;75.00;;;0.93;63.75;99129.13;5124668;28;20532;-83
2021/03/20 00:10:21;;;;;;;11.95;7.70;;;2.20;75.70;;;0.94;63.95;99136.00;5125986;28;20393;-83
2021/03/20 00:12:50;;;;;;;14.48;8.55;;;2.20;75.90;;;0.90;64.36;99132.06;5109360;28;20485;-83
2021/03/20 00:15:19;;;;;;;12.20;8.18;;;2.20;76.00;;;0.94;63.53;99129.97;5131891;28;20424;-83
2021/03/20 00:17:45;;;;;;;13.48;8.10;;;2.20;75.10;;;0.88;63.51;99144.41;5116792;28;20427;-84
2021/03/20 00:20:16;;;;;;;12.77;8.17;;;2.10;75.10;;;0.87;63.64;99132.34;5133265;28;20475;-85
2021/03/20 00:22:43;;;;;;;15.00;8.23;;;2.10;75.30;;;0.96;64.29;99143.66;5131066;28;20759;-84
2021/03/20 00:25:12;;;;;;;12.55;8.00;;;2.20;76.10;;;0.87;63.26;99142.75;5131529;28;20404;-84
2021/03/20 00:27:38;;;;;;;11.07;7.53;;;2.10;75.00;;;0.79;63.73;99142.66;5113043;28;20438;-81
2021/03/20 00:30:08;;;;;;;12.35;7.72;;;2.10;76.10;;;0.74;64.16;99137.09;5130263;28;20400;-84
2021/03/20 00:32:34;;;;;;;14.27;8.40;;;2.00;75.70;;;0.80;63.65;99136.50;5132158;28;20862;-83
2021/03/20 00:35:01;;;;;;;12.17;7.80;;;2.00;75.30;;;0.80;64.06;99135.66;5118946;28;20412;-83
2021/03/20 00:37:27;;;;;;;14.35;8.20;;;2.10;75.80;;;0.68;64.32;99135.03;5131575;28;20465;-82
2021/03/20 00:39:59;;;;;;;11.63;7.85;;;2.00;75.90;;;0.64;64.92;99133.69;5134122;28;20487;-83
2021/03/20 00:42:26;;;;;;;12.82;8.48;;;1.90;76.50;;;0.64;64.87;99137.13;5135986;28;20487;-84
2021/03/20 00:44:52;;;;;;;13.10;7.97;;;2.00;76.50;;;0.66;64.97;99136.97;5136575;28;20438;-82
2021/03/20 00:47:19;;;;;;;13.10;8.13;;;2.00;76.50;;;0.76;63.98;99135.13;5113465;28;20413;-84
2021/03/20 00:49:45;;;;;;;11.95;7.47;;;2.00;76.10;;;0.71;64.39;99135.56;5130930;28;20396;-84
2021/03/20 00:52:11;;;;;;;14.40;8.18;;;2.00;76.10;;;0.78;63.80;99130.59;5121595;28;20408;-83
2021/03/20 00:54:37;;;;;;;11.73;7.47;;;2.00;75.70;;;0.78;63.87;99139.25;5121262;28;20483;-82
2021/03/20 00:57:06;;;;;;;11.25;7.50;;;2.00;75.60;;;0.80;63.96;99138.28;5136902;28;20426;-84
2021/03/20 00:59:37;;;;;;;11.70;7.63;;;2.00;76.10;;;0.87;64.20;99140.16;5131092;28;20427;-84
2021/03/20 01:02:06;;;;;;;11.15;7.22;;;2.10;76.30;;;0.80;64.44;99146.09;5128049;28;20660;-84
2021/03/20 01:04:32;;;;;;;10.90;7.43;;;2.00;76.20;;;0.81;64.29;99142.53;5128106;28;20857;-83
2021/03/20 01:06:58;;;;;;;11.48;7.03;;;2.10;76.30;;;0.77;64.80;99148.03;5127477;28;20423;-85
2021/03/20 01:09:25;;;;;;;11.20;7.35;;;2.00;76.70;;;0.80;64.92;99143.50;5110812;28;20417;-83
2021/03/20 01:11:54;;;;;;;12.70;7.25;;;2.00;76.80;;;0.90;64.20;99146.88;5133317;28;20443;-81
2021/03/20 01:14:20;;;;;;;12.77;7.65;;;2.10;76.30;;;0.81;64.95;99140.75;5127548;28;20410;-83
2021/03/20 01:16:47;;;;;;;10.95;7.15;;;2.10;76.20;;;0.89;63.93;99140.00;5114121;28;20416;-82
2021/03/20 01:19:14;;;;;;;10.65;7.07;;;2.10;76.10;;;0.93;64.00;99136.94;5133555;28;20416;-84
2021/03/20 01:21:40;;;;;;;11.38;7.15;;;2.20;75.90;;;0.97;64.03;99133.09;5127836;28;20423;-83
2021/03/20 01:24:09;;;;;;;11.98;7.38;;;2.20;75.80;;;0.90;64.07;99139.88;5128035;28;20408;-83
2021/03/20 01:26:35;;;;;;;12.50;7.72;;;2.20;75.70;;;0.84;64.57;99140.44;5127195;28;20408;-84
2021/03/20 01:29:01;;;;;;;12.07;7.80;;;2.10;76.20;;;0.75;64.67;99147.34;5109075;28;20431;-83
2021/03/20 01:31:27;;;;;;;13.05;7.90;;;2.10;76.40;;;0.52;64.90;99138.28;5127839;28;20408;-82
2021/03/20 01:33:55;;;;;;;15.75;8.35;;;1.90;76.40;;;0.39;65.91;99142.97;5109027;28;20427;-83
2021/03/20 01:36:23;;;;;;;12.85;8.02;;;1.70;77.50;;;0.39;65.89;99145.59;5108945;28;20420;-83
2021/03/20 01:38:49;;;;;;;14.05;8.35;;;1.70;77.70;;;0.47;65.76;99137.88;5127167;28;20767;-83
2021/03/20 01:41:18;;;;;;;13.40;8.15;;;1.80;77.60;;;0.49;65.49;99143.78;5126739;28;20400;-83
2021/03/20 01:43:45;;;;;;;11.38;7.65;;;1.80;77.40;;;0.44;65.60;99146.00;5126551;28;20487;-84
2021/03/20 01:46:41;;;;;;;15.23;8.13;;;1.80;77.60;;;0.42;66.08;99150.53;5126542;28;20786;-83
2021/03/20 01:49:32;;;;;;;11.85;8.18;;;1.70;77.90;;;0.50;66.23;99153.25;5111734;28;20415;-84
2021/03/20 01:52:16;;;;;;;13.52;8.88;;;1.80;78.30;;;0.52;65.82;99153.91;5127756;28;20412;-83
2021/03/20 01:54:51;;;;;;;11.82;8.15;;;1.80;78.00;;;0.51;66.12;99151.47;5127398;28;20401;-85
2021/03/20 01:57:26;;;;;;;13.20;8.20;;;1.80;77.90;;;0.41;66.36;99158.47;5113353;28;20445;-84
2021/03/20 01:59:53;;;;;;;12.65;7.75;;;1.80;78.30;;;0.45;66.24;99165.06;5115745;28;20741;-83
2021/03/20 02:02:20;;;;;;;13.65;8.43;;;1.80;78.30;;;0.24;66.63;99162.66;5127947;28;20442;-84
2021/03/20 02:04:47;;;;;;;12.98;8.50;;;1.60;78.40;;;0.20;67.20;99159.53;5125508;28;20487;-83
2021/03/20 02:07:15;;;;;;;14.03;8.60;;;1.50;79.30;;;0.20;67.16;99164.72;5126947;28;20725;-83
2021/03/20 02:09:42;;;;;;;13.95;8.43;;;1.50;79.40;;;0.21;67.55;99158.56;5127389;28;20400;-84
2021/03/20 02:12:19;;;;;;;14.00;8.70;;;1.50;79.80;;;0.31;67.04;99150.69;5126584;28;20732;-82
2021/03/20 02:14:54;;;;;;;15.20;8.80;;;1.60;79.60;;;0.31;67.28;99155.91;5125747;28;20740;-83
2021/03/20 02:17:36;;;;;;;15.88;8.85;;;1.60;79.50;;;0.29;67.34;99157.84;5126158;28;20412;-84
2021/03/20 02:20:50;;;;;;;12.98;8.38;;;1.60;79.50;;;0.19;67.46;99157.88;5130611;28;20761;-83
2021/03/20 02:24:24;;;;;;;15.35;8.60;;;1.60;79.40;;;0.15;67.55;99147.91;5110462;28;20457;-82
2021/03/20 02:27:56;;;;;;;13.25;8.40;;;1.50;80.00;;;0.23;67.64;99153.19;5132153;28;20404;-84
2021/03/20 02:31:00;;;;;;;15.25;8.50;;;1.50;80.00;;;0.23;67.79;99161.00;5109388;28;20427;-84
2021/03/20 02:33:36;;;;;;;16.13;8.73;;;1.50;79.90;;;0.22;67.75;99148.97;5126452;28;20431;-83
2021/03/20 02:36:19;;;;;;;14.48;8.55;;;1.50;79.90;;;0.10;68.64;99163.09;5131547;28;20396;-84
2021/03/20 02:38:48;;;;;;;13.27;8.77;;;1.40;80.80;;;0.16;68.07;99157.31;5128868;28;20400;-83
2021/03/20 02:41:26;;;;;;;15.15;8.73;;;1.50;80.70;;;0.07;68.64;99159.00;5130049;28;20404;-83
2021/03/20 02:44:04;;;;;;;12.68;8.48;;;1.40;80.80;;;0.10;68.69;99158.72;5131092;28;20428;-82
2021/03/20 02:46:37;;;;;;;16.58;8.95;;;1.40;81.10;;;0.21;68.55;99158.56;5132373;28;20568;-84
2021/03/20 02:49:13;;;;;;;13.80;8.15;;;1.50;81.40;;;0.32;68.33;99147.13;5132254;28;20419;-83
2021/03/20 02:51:48;;;;;;;14.57;8.67;;;1.60;81.10;;;0.37;68.45;99148.38;5133183;28;20471;-83
2021/03/20 02:54:23;;;;;;;13.15;8.80;;;1.70;81.00;;;0.44;68.62;99147.78;5132053;28;20411;-84
2021/03/20 02:57:00;;;;;;;14.30;8.88;;;1.70;81.10;;;0.45;68.93;99141.63;5134336;28;20396;-82
2021/03/20 02:59:33;;;;;;;14.55;8.90;;;1.70;81.20;;;0.59;67.92;99144.56;5128299;28;20897;-84
2021/03/20 03:02:03;;;;;;;13.90;8.70;;;1.80;80.70;;;0.53;68.09;99139.91;5129440;28;20420;-85
2021/03/20 03:04:37;;;;;;;15.10;8.85;;;1.80;80.40;;;0.50;68.42;99145.44;5108867;28;20441;-82
2021/03/20 03:07:11;;;;;;;14.75;8.70;;;1.70;80.70;;;0.36;68.89;99141.50;5124282;28;20434;-82
2021/03/20 03:09:43;;;;;;;13.38;9.38;;;1.70;81.00;;;0.34;69.41;99151.25;5110514;28;20452;-83
2021/03/20 03:12:15;;;;;;;14.63;9.20;;;1.60;81.70;;;0.24;69.47;99142.63;5122935;28;20419;-85
2021/03/20 03:14:49;;;;;;;14.23;8.60;;;1.50;81.90;;;0.32;69.47;99139.31;5124352;28;20419;-83
2021/03/20 03:17:18;;;;;;;14.70;9.05;;;1.60;82.10;;;0.33;69.44;99138.34;5105900;28;20415;-85
2021/03/20 03:19:51;;;;;;;13.02;8.52;;;1.60;81.90;;;0.31;69.34;99145.47;5105792;28;20495;-85
2021/03/20 03:22:24;;;;;;;13.82;8.80;;;1.70;81.70;;;0.51;68.86;99136.66;5106088;28;20672;-83
2021/03/20 03:24:54;;;;;;;13.35;8.80;;;1.70;81.70;;;0.50;68.88;99155.03;5104873;28;20428;-83
2021/03/20 03:27:22;;;;;;;12.15;8.57;;;1.70;81.60;;;0.31;69.90;99150.69;5123087;28;20395;-84
2021/03/20 03:29:48;;;;;;;13.18;9.10;;;1.60;81.90;;;0.31;70.13;99148.91;5122423;28;20408;-82
2021/03/20 03:32:21;;;;;;;13.82;9.30;;;1.60;82.70;;;0.37;70.39;99150.97;5121924;28;20431;-84
2021/03/20 03:34:57;;;;;;;12.80;8.82;;;1.60;83.00;;;0.49;70.05;99150.78;5106167;28;20426;-84
2021/03/20 03:37:35;;;;;;;12.68;8.65;;;1.70;82.90;;;0.58;69.48;99165.53;5123599;28;20809;-82
2021/03/20 03:40:08;;;;;;;14.70;9.05;;;1.80;82.40;;;0.41;70.04;99174.94;5124503;28;20488;-82
2021/03/20 03:42:34;;;;;;;12.65;8.73;;;1.70;82.30;;;0.24;70.36;99178.25;5123190;28;20420;-83
2021/03/20 03:45:02;;;;;;;14.25;9.02;;;1.60;82.60;;;0.22;70.65;99178.44;5123198;28;20806;-84
2021/03/20 03:47:30;;;;;;;14.95;9.48;;;1.50;83.50;;;0.21;70.86;99186.38;5123433;28;20400;-79
2021/03/20 03:50:00;;;;;;;13.05;8.70;;;1.50;83.80;;;0.12;71.22;99177.63;5121719;28;20427;-83
2021/03/20 03:52:26;;;;;;;15.13;8.90;;;1.40;83.60;;;0.13;71.44;99181.06;5121037;28;20705;-82
2021/03/20 03:54:53;;;;;;;13.90;9.20;;;1.40;84.00;;;0.07;71.69;99182.44;5109425;28;20432;-80
2021/03/20 03:57:53;;;;;;;16.50;9.88;;;1.40;84.40;;;0.12;71.67;99189.81;5132747;28;20439;-80
2021/03/20 04:00:34;;;;;;;13.95;9.40;;;1.40;84.70;;;0.14;71.63;99190.50;5127781;28;20491;-81
2021/03/20 04:03:41;;;;;;;17.70;10.18;;;1.40;84.30;;;0.17;71.24;99188.44;5133475;28;20412;-83
2021/03/20 04:06:26;;;;;;;15.00;9.75;;;1.50;84.00;;;0.20;71.03;99176.91;5115921;28;20732;-84
2021/03/20 04:09:05;;;;;;;16.67;9.60;;;1.50;84.00;;;0.24;70.60;99181.69;5128422;28;20415;-83
2021/03/20 04:12:01;;;;;;;13.82;9.40;;;1.60;83.50;;;0.28;70.72;99180.47;5128346;28;20710;-83
2021/03/20 04:14:42;;;;;;;14.57;9.40;;;1.60;83.60;;;0.30;70.93;99188.94;5130980;28;20412;-83
2021/03/20 04:17:22;;;;;;;13.10;8.95;;;1.60;83.60;;;0.31;70.47;99187.97;5113338;28;20773;-83
2021/03/20 04:20:14;;;;;;;12.73;9.27;;;1.70;83.20;;;0.31;70.25;99187.97;5129936;28;20423;-83
2021/03/20 04:23:03;;;;;;;13.60;9.25;;;1.60;83.10;;;0.23;70.77;99176.63;5128650;28;20404;-83
2021/03/20 04:25:51;;;;;;;17.92;10.43;;;1.50;83.20;;;0.24;71.05;99176.50;5127945;28;20396;-80
2021/03/20 04:28:30;;;;;;;17.13;9.57;;;1.50;83.80;;;0.11;71.13;99178.59;5133735;28;20404;-80
2021/03/20 04:31:07;;;;;;;15.37;10.03;;;1.40;83.80;;;0.14;71.51;99178.31;5114336;28;20443;-81
2021/03/20 04:33:42;;;;;;;15.70;9.55;;;1.40;84.20;;;0.15;71.23;99171.31;5137809;28;20403;-83
2021/03/20 04:36:16;;;;;;;15.73;9.68;;;1.50;84.20;;;0.20;71.02;99176.91;5138088;28;20498;-81
2021/03/20 04:38:45;;;;;;;15.38;10.02;;;1.50;84.20;;;0.16;71.38;99184.19;5113167;28;20754;-83
2021/03/20 04:41:12;;;;;;;13.52;9.68;;;1.50;84.20;;;0.12;71.34;99195.03;5111976;28;20427;-83
2021/03/20 04:43:40;;;;;;;17.65;9.43;;;1.40;84.00;;;0.04;71.59;99203.53;5088341;28;20435;-82
2021/03/20 04:46:13;;;;;;;18.33;9.93;;;1.40;84.40;;;0.10;71.86;99210.78;5087373;28;20408;-84
2021/03/20 04:48:43;;;;;;;16.33;10.15;;;1.40;84.80;;;-0.01;72.11;99203.97;5087886;28;20723;-83
2021/03/20 04:51:30;;;;;;;75.95;24.95;;;1.40;84.80;;;-0.01;72.28;99221.38;5087914;28;20435;-83
2021/03/20 04:54:08;;;;;;;18.70;10.73;;;1.30;85.30;;;0.03;72.04;99212.31;5086665;28;20459;-82
2021/03/20 04:56:44;;;;;;;16.88;9.70;;;1.40;85.40;;;-0.14;72.28;99218.22;5103930;28;20408;-83
2021/03/20 04:59:30;;;;;;;16.48;10.05;;;1.30;85.20;;;-0.15;72.42;99208.78;5087838;28;20423;-83
2021/03/20 05:02:05;;;;;;;16.23;9.95;;;1.20;85.80;;;-0.20;72.86;99210.97;5088462;28;20408;-84
2021/03/20 05:04:39;;;;;;;15.38;10.15;;;1.10;85.80;;;-0.28;72.78;99201.25;5087993;28;20407;-84
2021/03/20 05:07:06;;;;;;;14.45;9.27;;;1.10;85.70;;;-0.29;73.24;99202.19;5086832;28;20407;-84
2021/03/20 05:09:32;;;;;;;16.65;9.75;;;1.10;86.10;;;-0.32;73.25;99199.06;5084684;28;20420;-84
2021/03/20 05:12:09;;;;;;;15.80;9.30;;;1.10;86.20;;;-0.24;73.19;99202.63;5086855;28;20413;-82
2021/03/20 05:14:38;;;;;;;16.60;10.05;;;1.00;86.40;;;-0.29;73.40;99203.97;5085680;28;20916;-84
2021/03/20 05:17:10;;;;;;;15.45;10.15;;;1.10;86.40;;;-0.38;73.59;99212.63;5089952;28;20407;-84
2021/03/20 05:19:37;;;;;;;17.35;9.70;;;0.90;86.50;;;-0.41;73.69;99206.72;5091829;28;20453;-84
2021/03/20 05:22:04;;;;;;;15.43;10.40;;;0.90;86.80;;;-0.44;73.54;99207.00;5088259;28;20560;-84
2021/03/20 05:24:34;;;;;;;12.75;9.20;;;0.90;87.00;;;-0.52;74.42;99206.84;5088729;28;20483;-84
2021/03/20 05:27:04;;;;;;;13.82;9.63;;;0.80;88.20;;;-0.56;74.13;99202.06;5087751;28;20400;-84
2021/03/20 05:29:31;;;;;;;13.15;9.85;;;0.80;87.50;;;-0.53;74.34;99204.41;5088702;28;20446;-84
2021/03/20 05:31:59;;;;;;;16.92;10.45;;;0.80;87.50;;;-0.44;74.04;99217.38;5088213;28;20412;-84
2021/03/20 05:34:29;;;;;;;15.83;10.03;;;0.90;87.40;;;-0.50;74.20;99214.50;5087997;28;20435;-84
2021/03/20 05:36:56;;;;;;;15.60;10.13;;;0.90;87.40;;;-0.38;74.10;99216.06;5087092;28;20407;-84
2021/03/20 05:39:23;;;;;;;13.18;9.40;;;0.90;87.50;;;-0.51;73.82;99218.91;5087267;28;20477;-84
2021/03/20 05:42:37;;;;;;;14.13;9.65;;;0.90;87.00;;;-0.42;74.08;99228.50;5092321;28;20414;-84
2021/03/20 05:45:20;;;;;;;14.95;10.05;;;0.90;87.20;;;-0.53;74.36;99218.22;5103739;28;20434;-83
2021/03/20 05:48:03;;;;;;;13.25;9.70;;;0.80;87.20;;;-0.52;74.13;99216.44;5112761;28;20410;-84
2021/03/20 05:51:15;;;;;;;19.17;10.52;;;0.80;87.20;;;-0.53;74.37;99218.22;5108319;28;20410;-85
2021/03/20 05:54:29;;;;;;;16.05;10.55;;;0.80;87.50;;;-0.50;74.14;99224.91;5109314;28;20441;-85
2021/03/20 05:57:12;;;;;;;18.60;11.07;;;0.90;87.40;;;-0.47;73.85;99224.66;5079826;28;20422;-85
2021/03/20 06:00:02;;;;;;;15.77;10.57;;;0.90;87.00;;;-0.49;73.84;99223.97;5109175;28;20916;-84
2021/03/20 06:03:09;;;;;;;13.45;9.18;;;0.90;87.00;;;-0.50;73.53;99237.94;5109379;28;20410;-84
2021/03/20 06:05:50;;;;;;;14.60;9.98;;;0.90;86.30;;;-0.58;73.43;99235.19;5124923;28;20444;-84
2021/03/20 06:08:53;;;;;;;15.83;10.37;;;0.80;86.70;;;-0.70;74.09;99244.88;5109284;28;20409;-84
2021/03/20 06:11:46;;;;;;;15.07;10.07;;;0.70;87.10;;;-0.65;74.45;99244.47;5108136;28;20517;-84
2021/03/20 06:14:34;;;;;;;14.43;9.85;;;0.70;87.60;;;-0.52;73.41;99256.25;5108726;28;20386;-85
2021/03/20 06:17:13;;;;;;;15.35;8.75;;;0.80;87.00;;;-0.51;73.22;99249.28;5107914;28;20410;-83
2021/03/20 06:20:10;;;;;;;17.27;9.50;;;0.80;86.50;;;-0.42;72.53;99256.28;5105598;28;20438;-84
2021/03/20 06:23:28;;;;;;;16.08;9.40;;;0.90;86.10;;;-0.44;72.71;99258.19;5105319;28;20421;-84
2021/03/20 06:26:01;;;;;;;14.70;9.32;;;0.90;85.60;;;-0.32;71.69;99262.31;5106331;28;20526;-83
2021/03/20 06:28:34;;;;;;;16.08;8.07;;;1.00;85.00;;;-0.50;71.62;99256.13;5107487;28;20425;-85
2021/03/20 06:31:12;;;;;;;12.30;8.38;;;0.90;84.30;;;-0.52;72.21;99258.03;5107655;28;20402;-84
2021/03/20 06:33:45;;;;;;;14.07;9.88;;;0.90;85.10;;;-0.40;71.87;99272.59;5109600;28;20421;-84
2021/03/20 06:36:20;;;;;;;13.80;8.77;;;0.90;85.10;;;-0.27;71.54;99273.13;5113952;28;20410;-83
2021/03/20 06:38:56;;;;;;;13.27;8.63;;;1.00;84.80;;;-0.12;70.71;99276.97;5130474;28;20502;-84
2021/03/20 06:41:32;;;;;;;13.57;8.33;;;1.10;84.20;;;-0.03;70.39;99283.97;5115364;28;20725;-83
2021/03/20 06:44:05;;;;;;;19.85;7.93;;;1.20;83.70;;;-0.03;70.58;99283.16;5134386;28;20417;-82
2021/03/20 06:46:34;;;;;;;12.15;7.15;;;1.30;83.70;;;-0.02;69.34;99293.44;5134174;28;20391;-84
2021/03/20 06:49:14;;;;;;;20.80;7.50;;;1.30;82.30;;;0.00;68.32;99294.09;5131980;28;20428;-82
2021/03/20 06:51:40;;;;;;;15.93;7.00;;;1.40;81.20;;;0.18;67.77;99293.41;5135030;28;20432;-80
2021/03/20 06:54:08;;;;;;;16.25;6.88;;;1.50;80.70;;;0.18;66.88;99291.63;5135458;28;20393;-82
2021/03/20 06:56:36;;;;;;;13.55;6.28;;;1.50;79.70;;;0.43;65.48;99281.59;5135196;28;20407;-84
2021/03/20 06:59:11;;;;;;;11.43;5.80;;;1.60;78.80;;;0.32;63.69;99292.97;5133699;28;20419;-84
2021/03/20 07:01:47;;;;;;;12.93;5.93;;;1.70;75.80;;;0.19;63.65;99298.50;5111989;28;20713;-85
2021/03/20 07:04:53;;;;;;;12.50;5.35;;;1.60;75.00;;;0.34;63.47;99309.31;5125389;28;20686;-83
2021/03/20 07:07:42;;;;;;;13.43;6.13;;;1.50;75.70;;;0.51;63.03;99313.81;5108236;28;20427;-83
2021/03/20 07:10:34;;;;;;;12.95;5.90;;;1.80;75.20;;;0.38;61.72;99319.28;5106827;28;20416;-81
2021/03/20 07:13:22;;;;;;;17.15;6.97;;;1.80;73.10;;;0.37;62.33;99303.81;5123510;28;20502;-86
2021/03/20 07:16:07;;;;;;;9.40;4.57;;;1.70;73.80;;;0.37;60.76;99306.44;5124420;28;20392;-83
2021/03/20 07:18:41;;;;;;;8.43;5.63;;;1.70;72.40;;;0.20;61.09;99310.56;5129314;28;20400;-83
2021/03/20 07:21:38;;;;;;;8.38;4.55;;;1.50;72.10;;;0.45;60.09;99311.78;5132339;28;20420;-84
2021/03/20 07:24:13;;;;;;;10.38;5.15;;;1.70;71.50;;;0.46;60.33;99320.38;5126025;28;20797;-85
2021/03/20 07:26:55;;;;;;;9.85;4.93;;;1.80;71.70;;;0.31;60.54;99325.19;5132545;28;20476;-85
2021/03/20 07:29:40;;;;;;;10.18;5.28;;;1.70;71.50;;;0.23;61.17;99315.47;5131695;28;20412;-83
2021/03/20 07:32:07;;;;;;;9.00;5.60;;;1.60;72.10;;;0.37;61.21;99324.66;5128752;28;20914;-83
2021/03/20 07:34:35;;;;;;;7.13;5.28;;;1.70;72.60;;;0.19;60.51;99318.50;5122642;28;20408;-84
2021/03/20 07:37:12;;;;;;;13.60;5.65;;;1.60;71.20;;;0.37;60.22;99324.66;5126237;28;20400;-84
2021/03/20 07:39:45;;;;;;;8.60;5.47;;;1.70;71.80;;;0.55;60.81;99332.56;5128185;28;20416;-84
2021/03/20 07:42:46;;;;;;;12.75;5.28;;;1.80;72.80;;;0.45;59.95;99321.38;5130251;28;20480;-83
2021/03/20 07:45:47;;;;;;;7.78;5.65;;;1.80;70.60;;;0.38;59.78;99319.28;5128781;28;20651;-86
2021/03/20 07:48:38;;;;;;;8.38;5.05;;;1.70;70.60;;;0.42;59.17;99338.09;5123456;28;20408;-87
2021/03/20 07:51:09;;;;;;;8.40;5.18;;;1.80;70.10;;;0.47;58.39;99332.44;5131362;28;20401;-84
2021/03/20 07:54:03;;;;;;;9.40;5.53;;;1.80;68.80;;;0.49;58.07;99336.56;5130532;28;20408;-85
2021/03/20 07:56:36;;;;;;;11.75;5.50;;;1.80;68.20;;;0.48;57.64;99337.53;5125915;28;20531;-85
2021/03/20 07:59:29;;;;;;;6.45;5.15;;;1.80;67.70;;;0.33;57.51;99342.34;5105535;28;20491;-87
2021/03/20 08:01:59;;;;;;;7.73;5.60;;;1.70;67.40;;;0.33;57.53;99346.72;5124079;28;20420;-85
2021/03/20 08:04:51;;;;;;;8.33;5.73;;;1.60;67.60;;;0.41;56.83;99346.84;5119998;28;20405;-87
2021/03/20 08:07:43;;;;;;;9.37;5.10;;;1.70;67.10;;;0.67;56.20;99358.34;5121711;28;20400;-86
2021/03/20 08:10:28;;;;;;;6.53;4.43;;;2.00;66.20;;;0.86;55.67;99367.91;5121127;28;20475;-85
2021/03/20 08:13:03;;;;;;;13.27;4.78;;;2.10;65.70;;;1.01;54.93;99376.94;5122639;28;20404;-85
2021/03/20 08:15:35;;;;;;;8.52;5.10;;;2.30;65.90;;;0.62;54.85;99380.56;5123576;28;20492;-85
2021/03/20 08:18:16;;;;;;;7.55;4.70;;;2.00;63.90;;;0.63;55.54;99380.44;5122193;28;20818;-86
2021/03/20 08:20:55;;;;;;;9.25;5.40;;;1.90;65.10;;;0.77;55.30;99371.34;5121056;28;20507;-85
2021/03/20 08:23:51;;;;;;;7.97;5.03;;;2.00;65.00;;;0.68;55.77;99366.97;5101067;28;20420;-84
2021/03/20 08:26:28;;;;;;;10.35;5.35;;;2.00;65.10;;;0.75;53.49;99370.69;5119184;28;20709;-84
2021/03/20 08:28:59;;;;;;;6.30;3.97;;;2.10;63.00;;;0.81;53.05;99356.28;5118819;28;20954;-84
2021/03/20 08:32:05;;;;;;;10.05;5.82;;;2.10;61.90;;;0.74;53.68;99345.59;5120561;28;20396;-85
2021/03/20 08:34:52;;;;;;;6.60;3.80;;;2.10;62.10;;;0.88;50.39;99371.22;5117779;28;20786;-83
2021/03/20 08:38:01;;;;;;;7.38;3.80;;;2.20;59.20;;;0.99;50.24;99375.41;5120273;28;20504;-85
2021/03/20 08:40:45;;;;;;;5.57;3.95;;;2.30;59.00;;;0.83;51.07;99372.59;5099676;28;20571;-86
2021/03/20 08:43:50;;;;;;;13.93;4.18;;;2.20;59.30;;;0.89;50.79;99382.47;5125654;28;20659;-84
2021/03/20 08:46:38;;;;;;;10.82;4.10;;;2.20;59.20;;;0.79;49.41;99385.06;5125067;28;20503;-85
2021/03/20 08:49:12;;;;;;;6.27;3.20;;;2.10;58.10;;;0.67;49.49;99394.03;5125058;28;20500;-85
2021/03/20 08:51:52;;;;;;;7.45;4.07;;;2.00;57.70;;;0.64;49.40;99392.50;5123635;28;20400;-84
2021/03/20 08:54:49;;;;;;;7.22;4.35;;;1.90;57.90;;;0.43;49.84;99402.25;5124957;28;20415;-85
2021/03/20 08:57:30;;;;;;;5.13;4.15;;;1.80;57.60;;;0.31;49.11;99418.97;5126402;28;20408;-85
2021/03/20 09:00:02;;;;;;;7.38;3.75;;;1.70;57.30;;;0.44;49.39;99411.72;5126076;28;20454;-85
2021/03/20 09:02:46;;;;;;;5.55;3.35;;;1.80;57.90;;;0.55;47.82;99400.31;5126693;27;20406;-85
2021/03/20 09:05:27;;;;;;;8.00;3.50;;;1.80;56.60;;;0.40;48.33;99399.91;5125723;28;20408;-84
2021/03/20 09:07:58;;;;;;;5.90;3.50;;;1.70;56.20;;;0.39;49.46;99406.06;5127605;28;20404;-84
2021/03/20 09:10:33;;;;;;;5.55;3.63;;;1.70;57.50;;;0.47;47.68;99397.56;5128041;28;20412;-83
2021/03/20 09:13:15;;;;;;;9.05;3.90;;;1.80;56.10;;;0.66;46.14;99401.00;5125478;28;20408;-83
2021/03/20 09:15:50;;;;;;;6.13;3.40;;;1.90;54.80;;;0.77;46.28;99397.41;5124732;28;20408;-84
2021/03/20 09:18:19;;;;;;;8.88;3.80;;;2.10;54.70;;;0.76;47.43;99398.38;5124000;28;20432;-83
2021/03/20 09:20:50;;;;;;;17.17;7.05;;;2.10;55.30;;;0.91;47.55;99396.16;5123155;28;20424;-84
2021/03/20 09:23:31;;;;;;;5.63;3.83;;;2.20;55.70;;;0.78;47.99;99394.69;5108011;28;20401;-83
2021/03/20 09:26:00;;;;;;;8.35;5.13;;;2.10;55.90;;;0.87;48.97;99408.66;5125648;28;20412;-81
2021/03/20 09:29:08;;;;;;;8.05;4.65;;;2.20;57.00;;;0.78;49.88;99410.31;5129328;28;20426;-85
2021/03/20 09:32:09;;;;;;;11.02;3.88;;;2.10;57.70;;;0.86;49.19;99412.22;5129713;28;20400;-84
2021/03/20 09:34:50;;;;;;;7.63;4.10;;;2.20;57.90;;;1.12;49.28;99410.69;5131655;28;20416;-83
2021/03/20 09:37:56;;;;;;;6.80;3.88;;;2.30;57.80;;;1.19;45.14;99410.09;5120488;28;20400;-80
2021/03/20 09:40:55;;;;;;;4.28;3.20;;;2.50;54.40;;;1.49;43.95;99402.84;5117153;28;20420;-84
2021/03/20 09:44:07;;;;;;;8.82;3.63;;;2.60;52.50;;;1.67;43.14;99402.06;5116234;28;20422;-81
2021/03/20 09:46:58;;;;;;;7.55;3.13;;;2.80;51.60;;;2.00;41.52;99390.22;5112979;28;20453;-83
2021/03/20 09:49:54;;;;;;;7.65;3.17;;;3.20;49.40;;;1.96;40.66;99397.50;5104665;28;20414;-80
2021/03/20 09:52:41;;;;;;;8.45;3.65;;;3.20;48.40;;;2.07;38.98;99386.88;5106916;28;20497;-83
2021/03/20 09:55:40;;;;;;;5.78;2.30;;;3.40;46.70;;;1.91;37.16;99384.91;5103878;28;20418;-82
2021/03/20 09:58:32;;;;;;;6.38;3.40;;;3.10;42.80;;;2.05;37.20;99387.97;5108254;28;20731;-82
2021/03/20 10:01:40;;;;;;;5.15;2.50;;;3.30;44.00;;;2.28;34.87;99394.41;5106166;28;20422;-81
2021/03/20 10:04:34;;;;;;;7.72;2.72;;;3.40;41.90;;;2.15;35.71;99383.53;5103320;28;20831;-81
2021/03/20 10:07:38;;;;;;;4.88;2.92;;;3.50;41.60;;;1.85;36.84;99380.28;5106161;28;20404;-81
2021/03/20 10:10:46;;;;;;;9.15;3.70;;;3.20;43.50;;;2.27;38.13;99385.75;5109455;28;20424;-81
2021/03/20 10:13:19;;;;;;;7.18;2.90;;;3.40;45.50;;;2.37;37.23;99379.63;5090681;28;20414;-82
2021/03/20 10:16:22;;;;;;;6.60;3.58;;;3.60;44.50;;;2.51;36.86;99376.50;5114734;28;20420;-82
2021/03/20 10:19:07;;;;;;;7.55;3.08;;;3.70;44.00;;;2.31;36.69;99371.44;5115024;28;20585;-83
2021/03/20 10:21:34;;;;;;;6.53;3.10;;;3.50;43.60;;;2.22;37.37;99367.09;5114413;28;20493;-82
2021/03/20 10:24:25;;;;;;;5.68;3.15;;;3.50;43.50;;;2.16;36.75;99378.16;5115776;28;20513;-81
2021/03/20 10:27:01;;;;;;;7.13;3.30;;;3.40;43.30;;;1.97;38.23;99382.66;5111948;28;20410;-82
2021/03/20 10:29:33;;;;;;;4.88;3.25;;;3.30;44.60;;;1.85;37.84;99371.63;5113162;28;20448;-81
2021/03/20 10:32:14;;;;;;;4.35;3.20;;;3.20;44.50;;;2.03;37.79;99364.63;5113301;28;20406;-81
2021/03/20 10:34:50;;;;;;;5.72;3.33;;;3.30;45.10;;;2.32;38.28;99357.41;5111204;28;20444;-82
2021/03/20 10:37:28;;;;;;;6.30;3.30;;;3.50;45.70;;;2.36;38.31;99359.69;5107298;28;20416;-81
2021/03/20 10:40:13;;;;;;;7.20;3.42;;;3.60;45.10;;;2.39;38.13;99369.88;5106267;28;20497;-80
2021/03/20 10:42:42;;;;;;;6.75;3.28;;;3.60;45.30;;;2.26;38.67;99381.50;5121382;28;20442;-81
2021/03/20 10:45:25;;;;;;;8.63;3.92;;;3.60;45.60;;;2.31;38.98;99378.44;5129505;28;20424;-80
2021/03/20 10:48:01;;;;;;;5.47;3.22;;;3.50;46.00;;;2.39;39.24;99380.31;5128935;28;20480;-79
2021/03/20 10:50:36;;;;;;;4.47;3.08;;;3.50;46.20;;;2.22;38.44;99379.34;5130129;28;20436;-81
2021/03/20 10:53:11;;;;;;;4.07;3.20;;;3.60;45.10;;;2.03;39.04;99372.44;5135060;28;20415;-81
2021/03/20 10:55:42;;;;;;;8.25;3.60;;;3.40;45.50;;;2.14;39.33;99376.66;5133996;28;20416;-81
2021/03/20 10:58:14;;;;;;;5.53;3.30;;;3.40;46.10;;;2.26;38.27;99375.44;5130583;28;20430;-83
2021/03/20 11:00:44;;;;;;;7.95;3.63;;;3.50;45.50;;;2.34;38.79;99370.28;5125425;28;20464;-81
2021/03/20 11:03:33;;;;;;;7.65;3.40;;;3.60;45.40;;;2.10;38.53;99362.25;5124189;28;20470;-81
2021/03/20 11:06:11;;;;;;;5.07;3.40;;;3.30;45.00;;;2.43;38.22;99358.94;5122060;28;20430;-81
2021/03/20 11:08:38;;;;;;;4.75;3.33;;;3.60;45.20;;;2.36;37.59;99357.91;5106347;28;20408;-82
2021/03/20 11:11:27;;;;;;;8.30;3.88;;;3.60;44.40;;;2.54;38.16;99356.13;5123309;28;20772;-82
2021/03/20 11:14:05;;;;;;;6.13;3.83;;;3.80;45.00;;;2.43;38.21;99368.56;5120145;28;20405;-81